Time;durP1;ratioP1;P1;durP2;ratioP2;P2;SDS_P1;SDS_P2;PMS_P1;PMS_P2;Temp;Humidity;BMP_temperature;BMP_pressure;BME280_temperature;BME280_humidity;BME280_pressure;Samples;Min_cycle;Max_cycle;Signal;HPM_P1;HPM_P2
2023/12/11 06:57:02;;;;;;;10.57;2.53;;;;;;;;;;10575821;28;20047;-88
2023/12/11 07:02:24;;;;;;;11.05;2.90;;;;;;;;;;10443624;28;20124;-88
2023/12/11 08:14:03;;;;;;;7.38;2.45;;;;;;;;;;10516354;28;20071;-85
2023/12/11 08:19:04;;;;;;;10.27;2.63;;;;;;;;;;10497914;28;20036;-81
2023/12/11 08:24:06;;;;;;;9.35;2.50;;;;;;;;;;10494268;28;20071;-83
2023/12/11 08:29:10;;;;;;;8.30;2.28;;;;;;;;;;10513638;28;20484;-82
2023/12/11 08:34:20;;;;;;;10.43;2.60;;;;;;;;;;10497598;28;20078;-83
2023/12/11 08:39:21;;;;;;;14.80;5.57;;;;;;;;;;10497571;28;20435;-83
2023/12/11 08:44:23;;;;;;;8.18;2.42;;;;;;;;;;10497022;28;20075;-83
2023/12/11 08:49:27;;;;;;;;;;;;;;;;;;10495871;28;20030;-81
2023/12/11 08:54:28;;;;;;;11.27;3.20;;;;;;;;;;10496061;28;19999;-83
2023/12/11 08:59:37;;;;;;;7.75;2.55;;;;;;;;;;10498045;28;20030;-84
2023/12/11 09:04:41;;;;;;;13.10;3.13;;;;;;;;;;10509972;28;20032;-81
2023/12/11 09:09:46;;;;;;;11.70;3.15;;;;;;;;;;10476364;28;20039;-80
2023/12/11 09:14:49;;;;;;;7.00;2.30;;;;;;;;;;10505951;28;20033;-82
2023/12/11 09:19:50;;;;;;;9.52;3.00;;;;;;;;;;10503490;28;20016;-81
2023/12/11 09:24:52;;;;;;;8.75;2.47;;;;;;;;;;10486624;28;20400;-82
2023/12/11 09:29:54;;;;;;;8.77;3.17;;;;;;;;;;10492122;28;20092;-79
2023/12/11 09:34:56;;;;;;;6.22;1.98;;;;;;;;;;10495828;28;20048;-81
2023/12/11 09:39:57;;;;;;;;;;;;;;;;;;10499003;28;20024;-82
2023/12/11 09:44:59;;;;;;;9.13;3.05;;;;;;;;;;10495740;28;19948;-82
2023/12/11 09:50:00;;;;;;;7.32;2.30;;;;;;;;;;10494466;28;20090;-81
2023/12/11 09:55:03;;;;;;;;;;;;;;;;;;10495986;28;20032;-81
2023/12/11 10:00:06;;;;;;;7.78;3.17;;;;;;;;;;10496161;28;20372;-81
2023/12/11 10:05:10;;;;;;;5.93;2.03;;;;;;;;;;10490341;28;20028;-80
2023/12/11 10:10:33;;;;;;;9.52;2.15;;;;;;;;;;10491434;28;20035;-82
2023/12/11 10:15:50;;;;;;;10.57;3.22;;;;;;;;;;10490335;28;20059;-83
2023/12/11 10:20:57;;;;;;;7.82;3.15;;;;;;;;;;10498471;28;20048;-82
2023/12/11 10:26:19;;;;;;;7.78;3.25;;;;;;;;;;10508188;28;20029;-80
2023/12/11 10:31:20;;;;;;;5.78;2.38;;;;;;;;;;10488651;28;20087;-80
2023/12/11 10:36:22;;;;;;;7.38;2.67;;;;;;;;;;10490864;28;20111;-80
2023/12/11 10:41:26;;;;;;;6.50;1.92;;;;;;;;;;10494857;28;20032;-81
2023/12/11 10:46:27;;;;;;;4.72;1.13;;;;;;;;;;10493706;28;20043;-82
2023/12/11 10:51:29;;;;;;;4.97;1.63;;;;;;;;;;10492073;28;20033;-81
2023/12/11 10:56:30;;;;;;;5.65;1.65;;;;;;;;;;10511927;28;20400;-80
2023/12/11 11:01:33;;;;;;;4.50;1.40;;;;;;;;;;10515686;28;20404;-78
2023/12/11 11:06:38;;;;;;;4.88;1.42;;;;;;;;;;10519402;28;20040;-81
2023/12/11 11:11:42;;;;;;;4.60;1.33;;;;;;;;;;10492818;28;20123;-80
2023/12/11 11:16:53;;;;;;;4.10;1.10;;;;;;;;;;10491297;28;20213;-82
2023/12/11 11:22:00;;;;;;;3.20;1.20;;;;;;;;;;10502547;28;20476;-80
2023/12/11 11:27:02;;;;;;;4.07;1.55;;;;;;;;;;10485928;28;20088;-81
2023/12/11 11:32:03;;;;;;;4.43;1.15;;;;;;;;;;10498244;28;20511;-80
2023/12/11 11:37:04;;;;;;;;;;;;;;;;;;10493636;28;20107;-80
2023/12/11 11:42:06;;;;;;;4.10;1.35;;;;;;;;;;10492233;28;19904;-82
2023/12/11 11:47:07;;;;;;;6.53;2.17;;;;;;;;;;10492257;28;20123;-80
2023/12/11 11:52:10;;;;;;;6.00;1.90;;;;;;;;;;10492174;28;20476;-81
2023/12/11 11:57:12;;;;;;;5.10;2.10;;;;;;;;;;10493944;28;20115;-80
2023/12/11 12:02:20;;;;;;;4.03;1.20;;;;;;;;;;10496286;28;20040;-81
2023/12/11 12:07:22;;;;;;;3.70;1.33;;;;;;;;;;10496452;28;20029;-81
2023/12/11 12:12:23;;;;;;;6.38;1.42;;;;;;;;;;10493656;28;20025;-79
2023/12/11 12:17:25;;;;;;;5.00;1.48;;;;;;;;;;10513954;28;20052;-82
2023/12/11 12:22:26;;;;;;;4.70;1.52;;;;;;;;;;10494181;28;20029;-81
2023/12/11 12:27:28;;;;;;;5.40;1.80;;;;;;;;;;10495559;28;20444;-81
2023/12/11 12:32:54;;;;;;;3.92;1.48;;;;;;;;;;10493870;28;20123;-81
2023/12/11 12:38:07;;;;;;;7.55;1.98;;;;;;;;;;10490096;28;20040;-81
2023/12/11 12:43:13;;;;;;;6.75;2.40;;;;;;;;;;10506639;28;20105;-80
2023/12/11 12:48:14;;;;;;;3.25;1.48;;;;;;;;;;10493116;28;20063;-81
2023/12/11 12:53:15;;;;;;;5.43;1.80;;;;;;;;;;10493714;28;20052;-80
2023/12/11 12:58:26;;;;;;;4.85;2.20;;;;;;;;;;10514046;28;20473;-81
2023/12/11 13:03:31;;;;;;;6.05;1.90;;;;;;;;;;10494047;28;20488;-80
2023/12/11 13:08:55;;;;;;;5.03;2.72;;;;;;;;;;10510509;28;20048;-80
2023/12/11 13:13:56;;;;;;;3.25;1.60;;;;;;;;;;10494461;28;20029;-80
2023/12/11 13:18:58;;;;;;;5.78;3.00;;;;;;;;;;10498726;28;20100;-81
2023/12/11 13:23:59;;;;;;;4.15;1.65;;;;;;;;;;10499936;28;20028;-80
2023/12/11 13:29:01;;;;;;;5.85;2.00;;;;;;;;;;10516445;28;20025;-80
2023/12/11 13:34:02;;;;;;;;;;;;;;;;;;10493196;28;20025;-80
2023/12/11 13:39:03;;;;;;;5.80;2.72;;;;;;;;;;10489001;28;20340;-80
2023/12/11 13:44:04;;;;;;;;;;;;;;;;;;10491713;28;20046;-81
2023/12/11 13:49:12;;;;;;;4.63;2.90;;;;;;;;;;10508367;28;19912;-80
2023/12/11 13:54:13;;;;;;;5.75;2.67;;;;;;;;;;10507014;28;20063;-81
2023/12/11 13:59:14;;;;;;;5.95;2.60;;;;;;;;;;10491767;28;20376;-81
2023/12/11 14:04:16;;;;;;;;;;;;;;;;;;10491639;28;20024;-81
2023/12/11 14:09:20;;;;;;;5.63;2.40;;;;;;;;;;10507702;28;20378;-82
2023/12/11 14:14:21;;;;;;;7.03;3.35;;;;;;;;;;10491674;28;20036;-81
2023/12/11 14:19:25;;;;;;;7.25;2.30;;;;;;;;;;10491045;28;20070;-82
2023/12/11 14:24:30;;;;;;;5.68;1.80;;;;;;;;;;10491394;28;20028;-81
2023/12/11 14:29:58;;;;;;;3.92;1.70;;;;;;;;;;10508956;28;20020;-81
2023/12/11 14:35:02;;;;;;;5.47;2.30;;;;;;;;;;10509471;28;20048;-81
2023/12/11 14:40:04;;;;;;;6.10;2.55;;;;;;;;;;10510875;28;20040;-80
2023/12/11 14:45:08;;;;;;;3.97;1.70;;;;;;;;;;10492391;28;20056;-81
2023/12/11 14:50:14;;;;;;;4.82;1.75;;;;;;;;;;10496835;28;20079;-80
2023/12/11 14:55:15;;;;;;;6.30;2.97;;;;;;;;;;10492800;28;20120;-82
2023/12/11 15:00:16;;;;;;;;;;;;;;;;;;10490782;28;20024;-81
2023/12/11 15:05:19;;;;;;;4.60;1.50;;;;;;;;;;10512399;28;19936;-81
2023/12/11 15:10:23;;;;;;;13.45;7.18;;;;;;;;;;10497821;28;20027;-82
2023/12/11 15:15:27;;;;;;;3.15;1.65;;;;;;;;;;10515096;28;20050;-82
2023/12/11 15:20:34;;;;;;;2.80;1.20;;;;;;;;;;10497950;28;20021;-82
2023/12/11 15:25:37;;;;;;;5.50;1.10;;;;;;;;;;10515186;28;20033;-81
2023/12/11 15:30:38;;;;;;;;;;;;;;;;;;10498661;28;20024;-80
2023/12/11 15:35:39;;;;;;;5.45;2.35;;;;;;;;;;10495588;28;19954;-80
2023/12/11 15:40:41;;;;;;;6.10;1.50;;;;;;;;;;10511902;28;20033;-79
2023/12/11 15:45:42;;;;;;;;;;;;;;;;;;10494211;28;20421;-80
2023/12/11 15:50:55;;;;;;;2.88;1.30;;;;;;;;;;10506452;28;20380;-81
2023/12/11 15:56:12;;;;;;;2.92;1.58;;;;;;;;;;10489564;28;20028;-81
2023/12/11 16:01:14;;;;;;;4.50;1.33;;;;;;;;;;10487702;28;20033;-80
2023/12/11 16:06:16;;;;;;;2.90;1.10;;;;;;;;;;10491251;28;20032;-81
2023/12/11 16:11:20;;;;;;;4.63;1.52;;;;;;;;;;10511260;28;20093;-81
2023/12/11 16:16:30;;;;;;;3.53;2.03;;;;;;;;;;10509422;28;20035;-81
2023/12/11 16:21:36;;;;;;;2.60;1.10;;;;;;;;;;10518710;22;20123;-80
2023/12/11 16:26:40;;;;;;;3.80;1.63;;;;;;;;;;10553441;28;20471;-81
2023/12/11 16:31:41;;;;;;;5.38;2.10;;;;;;;;;;10554572;28;20048;-81
2023/12/11 16:36:44;;;;;;;4.18;1.90;;;;;;;;;;10537289;28;20387;-81
2023/12/11 16:41:47;;;;;;;2.40;1.23;;;;;;;;;;10525460;28;20028;-81
2023/12/11 16:46:49;;;;;;;2.75;1.25;;;;;;;;;;10523537;28;20127;-81
2023/12/11 16:51:52;;;;;;;3.53;1.70;;;;;;;;;;10548735;28;20369;-81
2023/12/11 16:56:55;;;;;;;3.00;1.45;;;;;;;;;;10531424;28;20054;-81
2023/12/11 17:01:56;;;;;;;4.82;1.33;;;;;;;;;;10531039;28;20028;-81
2023/12/11 17:07:00;;;;;;;2.65;1.38;;;;;;;;;;10531065;28;20034;-80
2023/12/11 17:12:01;;;;;;;4.05;1.63;;;;;;;;;;10510705;28;20036;-79
2023/12/11 17:17:04;;;;;;;2.88;1.10;;;;;;;;;;10533499;28;20027;-81
2023/12/11 18:19:10;;;;;;;4.53;2.33;;;;;;;;;;10559765;28;20383;-84
2023/12/11 18:24:11;;;;;;;5.82;1.90;;;;;;;;;;10560536;28;20063;-84
2023/12/11 18:29:12;;;;;;;;;;;;;;;;;;10549635;28;20042;-83
2023/12/11 18:34:13;;;;;;;8.57;3.75;;;;;;;;;;10562255;28;19919;-83
2023/12/11 18:39:15;;;;;;;;;;;;;;;;;;10536262;28;20020;-83
2023/12/11 18:44:16;;;;;;;3.30;2.17;;;;;;;;;;10556950;28;19994;-84
2023/12/11 18:49:17;;;;;;;8.27;3.67;;;;;;;;;;10550923;28;20020;-84
2023/12/11 18:54:18;;;;;;;;;;;;;;;;;;10541376;28;20063;-85
2023/12/11 18:59:19;;;;;;;10.32;4.55;;;;;;;;;;10558734;28;20006;-85
2023/12/11 19:04:21;;;;;;;7.13;3.45;;;;;;;;;;10559250;28;20033;-84
2023/12/11 19:09:22;;;;;;;10.70;4.00;;;;;;;;;;10544890;28;20031;-84
2023/12/11 19:20:11;;;;;;;7.72;3.60;;;;;;;;;;10555489;28;20028;-85
2023/12/11 19:31:14;;;;;;;4.97;2.33;;;;;;;;;;10483412;28;20078;-84
2023/12/11 19:36:47;;;;;;;7.65;3.10;;;;;;;;;;10507975;28;20046;-85
2023/12/11 19:41:55;;;;;;;5.00;2.38;;;;;;;;;;10541843;28;20056;-85
2023/12/11 19:52:50;;;;;;;10.82;4.00;;;;;;;;;;10565887;28;20488;-85
2023/12/11 20:09:50;;;;;;;6.25;2.60;;;;;;;;;;10440912;28;20101;-85
